Time;durP1;ratioP1;P1;durP2;ratioP2;P2;SDS_P1;SDS_P2;PMS_P1;PMS_P2;Temp;Humidity;BMP_temperature;BMP_pressure;BME280_temperature;BME280_humidity;BME280_pressure;Samples;Min_cycle;Max_cycle;Signal;HPM_P1;HPM_P2
2023/04/22 00:02:05;;;;;;;1999.90;999.90;;;;;;;7.41;100.00;97746.91;5136626;27;20499;-89
2023/04/22 00:04:31;;;;;;;1999.90;999.90;;;;;;;7.46;100.00;97753.13;5137929;27;20101;-89
2023/04/22 00:06:56;;;;;;;1999.90;999.90;;;;;;;7.38;100.00;97745.56;5117047;27;20477;-84
2023/04/22 00:09:22;;;;;;;1999.90;999.90;;;;;;;7.42;100.00;97746.59;5135901;27;20095;-86
2023/04/22 00:11:48;;;;;;;1999.90;999.90;;;;;;;7.48;100.00;97750.13;5134816;27;20111;-85
2023/04/22 00:14:13;;;;;;;1999.90;999.90;;;;;;;7.48;100.00;97739.25;5134860;27;20456;-86
2023/04/22 00:16:39;;;;;;;1999.90;999.90;;;;;;;7.41;100.00;97744.19;5134864;27;20020;-85
2023/04/22 00:19:04;;;;;;;1999.90;999.90;;;;;;;7.37;100.00;97738.47;5134595;27;20019;-86
2023/04/22 00:21:31;;;;;;;1999.90;999.90;;;;;;;7.18;100.00;97723.06;5134386;27;20035;-81
2023/04/22 00:23:56;;;;;;;1999.90;999.90;;;;;;;7.23;100.00;97740.19;5134828;27;20106;-85
2023/04/22 00:26:22;;;;;;;1999.90;999.90;;;;;;;7.21;100.00;97746.97;5134939;27;20115;-87
2023/04/22 00:28:47;;;;;;;1999.90;999.90;;;;;;;7.17;100.00;97744.03;5135051;27;20476;-84
2023/04/22 00:31:12;;;;;;;1999.90;999.90;;;;;;;7.18;100.00;97742.91;5132611;27;20023;-84
2023/04/22 00:33:38;;;;;;;1999.90;999.90;;;;;;;7.30;100.00;97748.84;5135268;27;20026;-84
2023/04/22 00:36:03;;;;;;;1999.90;999.90;;;;;;;7.26;100.00;97742.34;5140460;27;20027;-86
2023/04/22 00:38:29;;;;;;;1999.90;999.90;;;;;;;7.19;100.00;97736.41;5133665;27;20532;-81
2023/04/22 00:40:58;;;;;;;1999.90;999.90;;;;;;;7.16;100.00;97745.13;5113623;27;20027;-82
2023/04/22 00:43:23;;;;;;;1999.90;999.90;;;;;;;7.15;100.00;97739.94;5131740;27;20023;-82
2023/04/22 00:45:49;;;;;;;1999.90;999.90;;;;;;;7.14;100.00;97750.00;5133904;27;20113;-81
2023/04/22 00:48:14;;;;;;;1999.90;999.90;;;;;;;7.10;100.00;97748.13;5133338;27;20034;-81
2023/04/22 00:50:40;;;;;;;1999.90;999.90;;;;;;;6.98;100.00;97751.16;5133149;27;20031;-84
2023/04/22 00:53:05;;;;;;;1999.90;999.90;;;;;;;7.04;100.00;97744.63;5132898;27;20551;-81
2023/04/22 00:55:31;;;;;;;1999.90;999.90;;;;;;;6.95;100.00;97736.19;5132885;27;20027;-82
2023/04/22 00:57:57;;;;;;;1999.90;999.90;;;;;;;6.99;100.00;97748.16;5114436;27;20027;-82
2023/04/22 01:00:26;;;;;;;1999.90;999.90;;;;;;;6.93;100.00;97741.13;5132964;27;20075;-78
2023/04/22 01:02:55;;;;;;;1999.90;999.90;;;;;;;6.90;100.00;97741.66;5132462;27;20031;-81
2023/04/22 01:05:20;;;;;;;1999.90;999.90;;;;;;;6.85;100.00;97740.88;5132126;27;20100;-80
2023/04/22 01:07:46;;;;;;;1999.90;999.90;;;;;;;6.91;100.00;97750.66;5132418;27;20065;-78
2023/04/22 01:10:12;;;;;;;1999.90;999.90;;;;;;;6.91;100.00;97754.19;5102311;28;20047;-77
2023/04/22 01:12:37;;;;;;;1999.90;999.90;;;;;;;6.87;100.00;97749.56;5091468;28;20472;-79
2023/04/22 01:15:03;;;;;;;1999.90;999.90;;;;;;;6.86;100.00;97745.22;5091593;28;20024;-81
2023/04/22 01:17:30;;;;;;;1999.90;999.90;;;;;;;6.84;100.00;97760.97;5092193;28;20488;-78
2023/04/22 01:19:57;;;;;;;1999.90;999.90;;;;;;;6.73;100.00;97745.81;5089935;28;20054;-81
2023/04/22 01:22:26;;;;;;;1999.90;999.90;;;;;;;6.69;100.00;97755.59;5091329;28;20028;-78
2023/04/22 01:24:52;;;;;;;1999.90;999.90;;;;;;;6.66;100.00;97742.56;5091437;28;20024;-82
2023/04/22 01:27:18;;;;;;;1999.90;999.90;;;;;;;6.72;100.00;97757.75;5093446;28;20070;-78
2023/04/22 01:29:44;;;;;;;1999.90;999.90;;;;;;;6.70;100.00;97754.50;5095002;28;20020;-83
2023/04/22 01:32:09;;;;;;;1999.90;999.90;;;;;;;6.73;100.00;97753.97;5092373;28;20032;-80
2023/04/22 01:34:35;;;;;;;1999.90;999.90;;;;;;;6.63;100.00;97748.53;5093070;28;20115;-77
2023/04/22 01:37:00;;;;;;;1999.90;999.90;;;;;;;6.74;100.00;97755.56;5093793;28;20077;-79
2023/04/22 01:39:26;;;;;;;1999.90;999.90;;;;;;;6.73;100.00;97746.63;5091748;28;20111;-80
2023/04/22 01:41:52;;;;;;;1999.90;999.90;;;;;;;6.55;100.00;97730.09;5094236;28;20073;-83
2023/04/22 01:44:18;;;;;;;1999.90;999.90;;;;;;;6.70;100.00;97754.50;5093656;28;21956;-78
2023/04/22 01:46:44;;;;;;;1999.90;999.90;;;;;;;6.62;100.00;97741.47;5093853;28;20503;-77
2023/04/22 01:49:10;;;;;;;1999.90;999.90;;;;;;;6.68;100.00;97752.06;5092495;28;20028;-79
2023/04/22 01:51:35;;;;;;;1999.90;999.90;;;;;;;6.55;100.00;97743.69;5091879;28;20113;-79
2023/04/22 01:54:02;;;;;;;1999.90;999.90;;;;;;;6.43;100.00;97738.50;5091659;28;20070;-78
2023/04/22 01:56:28;;;;;;;1999.90;999.90;;;;;;;6.54;100.00;97750.19;5091594;28;20024;-82
2023/04/22 01:58:53;;;;;;;1999.90;999.90;;;;;;;6.54;100.00;97755.63;5091599;28;20035;-78
2023/04/22 02:01:19;;;;;;;1999.90;999.90;;;;;;;6.58;100.00;97743.91;5092216;28;20024;-77
2023/04/22 02:03:44;;;;;;;1999.90;999.90;;;;;;;6.48;100.00;97744.75;5090558;28;20036;-76
2023/04/22 02:06:10;;;;;;;1999.90;999.90;;;;;;;6.47;100.00;97737.72;5091456;28;20028;-77
2023/04/22 02:08:35;;;;;;;1999.90;999.90;;;;;;;6.50;100.00;97752.63;5092269;28;20040;-75
2023/04/22 02:11:01;;;;;;;1999.90;999.90;;;;;;;6.53;100.00;97753.97;5122192;28;20127;-77
2023/04/22 02:13:36;;;;;;;1999.90;999.90;;;;;;;6.48;100.00;97744.75;5132411;28;20023;-77
2023/04/22 02:16:01;;;;;;;;;;;;;;;6.53;100.00;97748.56;5132041;28;20080;-81
2023/04/22 02:18:27;;;;;;;;;;;;;;;6.53;100.00;97748.56;5132606;28;19911;-76
2023/04/22 02:20:52;;;;;;;1999.90;999.90;;;;;;;6.43;100.00;97750.19;5132101;28;20006;-80
2023/04/22 02:23:18;;;;;;;1999.90;999.90;;;;;;;6.35;100.00;97739.91;5132019;28;20506;-81
2023/04/22 02:25:49;;;;;;;1999.90;999.90;;;;;;;6.23;100.00;97736.66;5132566;28;20030;-77
2023/04/22 02:28:14;;;;;;;1999.90;999.90;;;;;;;6.24;100.00;97735.53;5132097;28;20031;-77
2023/04/22 02:30:40;;;;;;;1999.90;999.90;;;;;;;6.25;100.00;97742.63;5114266;28;20019;-77
2023/04/22 02:33:05;;;;;;;1999.90;999.90;;;;;;;6.27;100.00;97732.28;5132414;28;20120;-77
2023/04/22 02:35:30;;;;;;;1999.90;999.90;;;;;;;6.20;100.00;97734.47;5132859;28;20046;-78
2023/04/22 02:37:56;;;;;;;1999.90;999.90;;;;;;;6.23;100.00;97741.28;5133455;28;20035;-76
2023/04/22 02:40:21;;;;;;;1999.90;999.90;;;;;;;6.29;100.00;97735.56;5134616;28;20507;-76
2023/04/22 02:42:47;;;;;;;1999.90;999.90;;;;;;;6.21;100.00;97738.00;5137493;28;20421;-80
2023/04/22 02:45:13;;;;;;;1999.90;999.90;;;;;;;6.22;100.00;97737.72;5135320;28;20475;-75
2023/04/22 02:47:38;;;;;;;1999.90;999.90;;;;;;;6.12;100.00;97735.00;5133169;28;20068;-76
2023/04/22 02:50:05;;;;;;;1999.90;999.90;;;;;;;6.10;100.00;97744.53;5133595;28;20076;-76
2023/04/22 02:52:32;;;;;;;1999.90;999.90;;;;;;;6.04;100.00;97741.00;5134833;28;20076;-79
2023/04/22 02:54:57;;;;;;;1999.90;999.90;;;;;;;6.19;100.00;97746.44;5112879;28;20053;-77
2023/04/22 02:57:23;;;;;;;1999.90;999.90;;;;;;;6.17;100.00;97735.00;5131275;28;20031;-77
2023/04/22 02:59:48;;;;;;;1999.90;999.90;;;;;;;6.13;100.00;97744.81;5131308;28;20023;-79
2023/04/22 03:02:13;;;;;;;1999.90;999.90;;;;;;;6.14;100.00;97735.53;5130943;28;20029;-76
2023/04/22 03:04:39;;;;;;;1999.90;999.90;;;;;;;6.12;100.00;97737.72;5133180;27;20071;-76
2023/04/22 03:07:05;;;;;;;1999.90;999.90;;;;;;;6.06;100.00;97729.84;5134925;27;20034;-78
2023/04/22 03:09:30;;;;;;;1999.90;999.90;;;;;;;6.16;100.00;97743.44;5134589;27;20026;-77
2023/04/22 03:11:55;;;;;;;1999.90;999.90;;;;;;;6.14;100.00;97740.19;5134743;27;20035;-77
2023/04/22 03:14:21;;;;;;;1999.90;999.90;;;;;;;6.07;100.00;97729.59;5134818;27;20111;-79
2023/04/22 03:16:46;;;;;;;1999.90;999.90;;;;;;;6.01;100.00;97736.13;5134662;27;20027;-78
2023/04/22 03:19:12;;;;;;;1999.90;999.90;;;;;;;5.95;100.00;97734.50;5134983;27;20356;-78
2023/04/22 03:21:37;;;;;;;1999.90;999.90;;;;;;;6.03;100.00;97739.38;5135026;27;20034;-83
2023/04/22 03:24:02;;;;;;;1999.90;999.90;;;;;;;6.02;100.00;97740.44;5134498;27;20029;-78
2023/04/22 03:26:28;;;;;;;1999.90;999.90;;;;;;;5.89;100.00;97727.41;5134449;27;20468;-80
2023/04/22 03:28:53;;;;;;;1999.90;999.90;;;;;;;5.93;100.00;97736.63;5134146;27;20031;-79
2023/04/22 03:31:18;;;;;;;1999.90;999.90;;;;;;;5.93;100.00;97739.34;5134255;27;20411;-78
2023/04/22 03:33:44;;;;;;;1999.90;999.90;;;;;;;5.93;100.00;97728.50;5134050;27;20114;-79
2023/04/22 03:36:11;;;;;;;1999.90;999.90;;;;;;;6.07;100.00;97750.50;5134129;27;20072;-82
2023/04/22 03:38:36;;;;;;;1999.90;999.90;;;;;;;5.93;100.00;97750.22;5134874;27;20027;-85
2023/04/22 03:41:02;;;;;;;1999.90;999.90;;;;;;;5.99;100.00;97743.69;5134768;27;20430;-86
2023/04/22 03:43:27;;;;;;;1999.90;999.90;;;;;;;5.96;100.00;97752.38;5134709;27;20073;-84
2023/04/22 03:45:52;;;;;;;1999.90;999.90;;;;;;;6.02;100.00;97755.91;5135943;27;20027;-82
2023/04/22 03:48:18;;;;;;;1999.90;999.90;;;;;;;6.01;100.00;97757.84;5116368;27;20031;-82
2023/04/22 03:50:43;;;;;;;1999.90;999.90;;;;;;;5.92;100.00;97746.69;5133809;27;20591;-77
2023/04/22 03:53:08;;;;;;;1999.90;999.90;;;;;;;5.81;100.00;97731.44;5126955;27;20085;-77
2023/04/22 03:55:34;;;;;;;1999.90;999.90;;;;;;;5.88;100.00;97734.75;5094573;28;20026;-79
2023/04/22 03:57:59;;;;;;;1999.90;999.90;;;;;;;6.13;100.00;97752.94;5094962;28;20050;-81
2023/04/22 04:00:25;;;;;;;1999.90;999.90;;;;;;;6.17;100.00;97753.22;5130626;27;20047;-76
2023/04/22 04:02:50;;;;;;;1999.90;999.90;;;;;;;6.14;100.00;97754.56;5133516;27;20055;-78
2023/04/22 04:05:16;;;;;;;1999.90;999.90;;;;;;;6.10;100.00;97752.66;5133166;27;20349;-77
2023/04/22 04:07:41;;;;;;;1999.90;999.90;;;;;;;6.10;100.00;97742.63;5133820;27;20027;-76
2023/04/22 04:10:07;;;;;;;1999.90;999.90;;;;;;;6.17;100.00;97743.16;5133545;27;20062;-77
2023/04/22 04:12:32;;;;;;;1999.90;999.90;;;;;;;6.23;100.00;97744.81;5134559;27;20026;-76
2023/04/22 04:14:58;;;;;;;1999.90;999.90;;;;;;;6.24;100.00;97746.41;5135637;27;20043;-78
2023/04/22 04:17:27;;;;;;;1999.90;999.90;;;;;;;6.16;100.00;97738.81;5134579;27;20019;-77
2023/04/22 04:19:53;;;;;;;1999.90;999.90;;;;;;;6.27;100.00;97751.28;5133319;27;20038;-81
2023/04/22 04:22:19;;;;;;;1999.90;999.90;;;;;;;6.42;100.00;97750.50;5114363;27;20403;-81
2023/04/22 04:24:46;;;;;;;1999.90;999.90;;;;;;;6.37;100.00;97745.88;5132935;27;20027;-83
2023/04/22 04:27:12;;;;;;;1999.90;999.90;;;;;;;6.32;100.00;97740.44;5132901;27;20072;-80
2023/04/22 04:29:38;;;;;;;1999.90;999.90;;;;;;;6.36;100.00;97738.78;5133283;27;20034;-77
2023/04/22 04:32:04;;;;;;;1999.90;999.90;;;;;;;6.44;100.00;97749.13;5133449;27;20036;-78
2023/04/22 04:34:30;;;;;;;1999.90;999.90;;;;;;;6.52;100.00;97755.06;5132947;27;20142;-79
2023/04/22 04:36:56;;;;;;;1999.90;999.90;;;;;;;6.51;100.00;97750.75;5135963;27;20035;-76
2023/04/22 04:39:22;;;;;;;1999.90;999.90;;;;;;;6.64;100.00;97755.63;5136391;27;20035;-84
2023/04/22 04:41:47;;;;;;;1999.90;999.90;;;;;;;6.62;100.00;97757.78;5133835;27;20379;-76
2023/04/22 04:44:14;;;;;;;1999.90;999.90;;;;;;;6.57;100.00;97763.22;5133029;27;20046;-77
2023/04/22 04:46:40;;;;;;;1999.90;999.90;;;;;;;6.62;100.00;97768.63;5133778;27;20024;-77
2023/04/22 04:49:08;;;;;;;1999.90;999.90;;;;;;;6.69;100.00;97769.19;5115315;27;20023;-77
2023/04/22 04:51:34;;;;;;;1999.90;999.90;;;;;;;6.72;100.00;97774.88;5121088;28;20024;-77
2023/04/22 04:53:59;;;;;;;1999.90;999.90;;;;;;;6.75;100.00;97778.94;5123276;28;20104;-78
2023/04/22 04:56:25;;;;;;;1999.90;999.90;;;;;;;6.63;100.00;97775.72;5111016;28;20076;-78
2023/04/22 04:58:50;;;;;;;1999.90;999.90;;;;;;;6.45;100.00;97775.19;5111901;28;20030;-76
2023/04/22 05:01:15;;;;;;;1999.90;999.90;;;;;;;6.44;100.00;97773.56;5111680;28;20061;-76
2023/04/22 05:03:41;;;;;;;1999.90;999.90;;;;;;;6.45;100.00;97775.19;5111687;28;20492;-76
2023/04/22 05:06:06;;;;;;;1999.90;999.90;;;;;;;6.51;100.00;97775.19;5111796;28;20015;-75
2023/04/22 05:08:32;;;;;;;1999.90;999.90;;;;;;;6.49;100.00;97770.00;5111968;27;20080;-76
2023/04/22 05:10:57;;;;;;;1999.90;999.90;;;;;;;6.46;100.00;97776.00;5132084;27;20391;-78
2023/04/22 05:13:23;;;;;;;1999.90;999.90;;;;;;;6.52;100.00;97771.38;5132263;27;20382;-75
2023/04/22 05:15:48;;;;;;;1999.90;999.90;;;;;;;6.57;100.00;97777.63;5132253;27;20027;-75
2023/04/22 05:18:14;;;;;;;1999.90;999.90;;;;;;;6.53;100.00;97773.00;5113685;27;20417;-75
2023/04/22 05:20:39;;;;;;;1999.90;999.90;;;;;;;6.57;100.00;97779.53;5132092;27;20027;-75
2023/04/22 05:23:04;;;;;;;1999.90;999.90;;;;;;;6.51;100.00;97778.72;5131626;27;20034;-74
2023/04/22 05:25:30;;;;;;;1999.90;999.90;;;;;;;6.53;100.00;97784.69;5131955;27;20027;-76
2023/04/22 05:27:55;;;;;;;1999.90;999.90;;;;;;;6.58;100.00;97781.16;5131605;27;20031;-75
2023/04/22 05:30:21;;;;;;;1999.90;999.90;;;;;;;6.54;100.00;97782.78;5132347;27;20041;-75
2023/04/22 05:32:46;;;;;;;1999.90;999.90;;;;;;;6.57;100.00;97782.25;5132350;27;20031;-77
2023/04/22 05:35:11;;;;;;;1999.90;999.90;;;;;;;6.67;100.00;97779.53;5132401;27;20388;-74
2023/04/22 05:37:37;;;;;;;1999.90;999.90;;;;;;;6.77;100.00;97782.19;5132825;27;20114;-76
2023/04/22 05:40:03;;;;;;;1999.90;999.90;;;;;;;6.88;100.00;97781.09;5135696;27;20038;-74
2023/04/22 05:42:29;;;;;;;1999.90;999.90;;;;;;;6.87;100.00;97784.91;5131374;27;20103;-75
2023/04/22 05:44:54;;;;;;;1999.90;999.90;;;;;;;6.88;100.00;97779.19;5131069;27;20035;-76
2023/04/22 05:47:19;;;;;;;1999.90;999.90;;;;;;;7.09;100.00;97787.28;5112334;27;20115;-75
2023/04/22 05:49:45;;;;;;;1999.90;999.90;;;;;;;7.15;100.00;97791.59;5113160;27;20024;-75
2023/04/22 05:52:10;;;;;;;1999.90;999.90;;;;;;;7.24;100.00;97792.66;5130852;27;20023;-77
2023/04/22 05:54:36;;;;;;;1999.90;999.90;;;;;;;7.30;100.00;97783.41;5131208;27;20031;-76
2023/04/22 05:57:01;;;;;;;1999.90;999.90;;;;;;;7.35;100.00;97794.28;5131537;27;20080;-80
2023/04/22 05:59:26;;;;;;;1999.90;999.90;;;;;;;7.53;100.00;97791.72;5131506;27;20080;-75
2023/04/22 06:01:52;;;;;;;1999.90;999.90;;;;;;;7.53;100.00;97802.63;5132029;27;20388;-76
2023/04/22 06:04:18;;;;;;;1999.90;999.90;;;;;;;7.47;100.00;97792.84;5132055;28;20487;-76
2023/04/22 06:06:43;;;;;;;1999.90;999.90;;;;;;;7.63;100.00;97795.50;5131628;28;20110;-76
2023/04/22 06:09:08;;;;;;;1999.90;999.90;;;;;;;7.67;100.00;97800.09;5131631;28;20479;-77
2023/04/22 06:11:34;;;;;;;1999.90;999.90;;;;;;;7.59;100.00;97786.25;5131292;28;20047;-77
2023/04/22 06:14:00;;;;;;;1999.90;999.90;;;;;;;7.59;100.00;97795.25;5131297;28;20081;-82
2023/04/22 06:16:26;;;;;;;1999.90;999.90;;;;;;;7.64;100.00;97791.69;5131403;27;20474;-83
2023/04/22 06:18:52;;;;;;;1999.90;999.90;;;;;;;7.80;100.00;97802.19;5131824;27;20034;-78
2023/04/22 06:21:18;;;;;;;1999.90;999.90;;;;;;;7.78;100.00;97804.41;5131440;28;20395;-81
2023/04/22 06:23:44;;;;;;;1999.90;999.90;;;;;;;7.88;100.00;97792.63;5131354;28;20019;-87
2023/04/22 06:26:13;;;;;;;1999.90;999.90;;;;;;;8.05;100.00;97784.88;5131445;27;20030;-77
2023/04/22 06:28:39;;;;;;;1999.90;999.90;;;;;;;8.42;100.00;97801.53;5131306;27;20418;-81
2023/04/22 06:31:04;;;;;;;1999.90;999.90;;;;;;;8.60;100.00;97806.28;5132024;28;20027;-84
2023/04/22 06:33:29;;;;;;;1999.90;999.90;;;;;;;8.79;100.00;97808.28;5131831;28;20018;-85
2023/04/22 06:35:55;;;;;;;1999.90;999.90;;;;;;;8.84;100.00;97808.22;5131226;28;20107;-82
2023/04/22 06:38:21;;;;;;;1999.90;999.90;;;;;;;8.81;100.00;97806.91;5112965;28;20027;-82
2023/04/22 06:40:46;;;;;;;1999.90;999.90;;;;;;;9.01;100.00;97811.34;5135365;27;20752;-79
2023/04/22 06:43:11;;;;;;;1999.90;999.90;;;;;;;9.21;100.00;97811.09;5135115;27;20083;-83
2023/04/22 06:45:37;;;;;;;1999.90;999.90;;;;;;;8.95;100.00;97817.97;5116287;27;20011;-76
2023/04/22 06:48:02;;;;;;;1999.90;999.90;;;;;;;8.53;100.00;97819.41;5132893;27;20368;-76
2023/04/22 06:50:27;;;;;;;1999.90;999.90;;;;;;;9.06;100.00;97820.28;5135621;27;20027;-76
2023/04/22 06:52:53;;;;;;;1999.90;999.90;;;;;;;9.07;100.00;97827.38;5135772;27;20468;-77
2023/04/22 06:55:18;;;;;;;1999.90;999.90;;;;;;;9.23;100.00;97828.03;5136958;27;20130;-75
2023/04/22 06:57:44;;;;;;;1999.90;999.90;;;;;;;9.67;100.00;97823.13;5142409;27;20023;-80
2023/04/22 07:00:10;;;;;;;1999.90;999.90;;;;;;;10.29;100.00;97826.66;5140347;27;20075;-77
2023/04/22 07:02:35;;;;;;;1999.90;999.90;;;;;;;10.20;100.00;97833.91;5137241;27;20020;-80
2023/04/22 07:05:01;;;;;;;1999.90;999.90;;;;;;;10.14;100.00;97826.91;5135168;27;20016;-75
2023/04/22 07:07:26;;;;;;;1999.90;999.90;;;;;;;10.39;100.00;97826.50;5134385;27;20023;-76
2023/04/22 07:09:52;;;;;;;1999.90;999.90;;;;;;;10.74;100.00;97825.91;5136475;27;20448;-77
2023/04/22 07:12:17;;;;;;;1999.90;999.90;;;;;;;11.06;100.00;97833.28;5134008;27;20180;-75
2023/04/22 07:14:43;;;;;;;1999.90;999.90;;;;;;;11.21;100.00;97834.97;5133844;27;20020;-76
2023/04/22 07:17:10;;;;;;;1999.90;999.90;;;;;;;11.05;100.00;97834.44;5132599;27;20015;-76
2023/04/22 07:19:35;;;;;;;1999.90;999.90;;;;;;;12.39;100.00;97830.31;5132994;27;20071;-77
2023/04/22 07:22:05;;;;;;;1999.90;999.90;;;;;;;12.78;100.00;97833.19;5132563;27;20022;-76
2023/04/22 07:24:31;;;;;;;1999.90;999.90;;;;;;;12.70;100.00;97822.16;5132115;27;20046;-76
2023/04/22 07:26:56;;;;;;;1999.90;999.90;;;;;;;13.14;100.00;97815.81;5133246;27;20073;-76
2023/04/22 07:29:22;;;;;;;1999.90;999.90;;;;;;;13.75;100.00;97824.00;5130602;27;20501;-76
2023/04/22 07:31:47;;;;;;;1999.90;999.90;;;;;;;13.80;100.00;97823.84;5132800;27;20492;-75
2023/04/22 07:34:13;;;;;;;1999.90;999.90;;;;;;;13.12;100.00;97816.16;5114062;27;20023;-78
2023/04/22 07:36:41;;;;;;;1999.90;999.90;;;;;;;12.58;100.00;97802.69;5131869;27;20095;-76
2023/04/22 07:39:08;;;;;;;1999.90;999.90;;;;;;;12.33;100.00;97806.84;5131991;27;20104;-74
2023/04/22 07:41:34;;;;;;;1999.90;999.90;;;;;;;11.90;100.00;97805.66;5129295;27;20464;-75
2023/04/22 07:44:00;;;;;;;1999.90;999.90;;;;;;;12.02;100.00;97805.94;5131806;27;20427;-74
2023/04/22 07:46:26;;;;;;;1999.90;999.90;;;;;;;12.52;100.00;97796.53;5132931;27;20023;-75
2023/04/22 07:48:51;;;;;;;1999.90;999.90;;;;;;;12.71;100.00;97805.38;5133073;27;20043;-74
2023/04/22 07:51:16;;;;;;;1999.90;999.90;;;;;;;12.66;100.00;97804.66;5133405;27;20019;-75
2023/04/22 07:53:42;;;;;;;1999.90;999.90;;;;;;;13.10;100.00;97806.59;5133147;27;20027;-75
2023/04/22 07:56:07;;;;;;;1999.90;999.90;;;;;;;13.90;100.00;97815.31;5133295;27;20472;-75
2023/04/22 07:58:32;;;;;;;1999.90;999.90;;;;;;;14.91;100.00;97812.13;5129944;27;20106;-75
2023/04/22 08:00:58;;;;;;;1999.90;999.90;;;;;;;16.83;100.00;97818.75;5133079;27;20456;-74
2023/04/22 08:03:23;;;;;;;1999.90;999.90;;;;;;;19.06;82.44;97821.28;5132911;27;20029;-75
2023/04/22 08:05:48;;;;;;;1999.90;999.90;;;;;;;20.32;69.63;97830.50;5132854;27;20103;-75
2023/04/22 08:08:14;;;;;;;1999.90;999.90;;;;;;;20.42;66.40;97829.13;5132612;27;20700;-73
2023/04/22 08:10:39;;;;;;;1999.90;999.90;;;;;;;20.06;67.59;97827.44;5130758;27;20039;-74
2023/04/22 08:13:05;;;;;;;1999.90;999.90;;;;;;;21.04;63.25;97828.88;5132585;27;20095;-73
2023/04/22 08:15:30;;;;;;;1999.90;999.90;;;;;;;21.98;60.00;97827.47;5132424;27;20023;-73
2023/04/22 08:17:56;;;;;;;1999.90;999.90;;;;;;;22.41;57.12;97824.97;5132657;27;20019;-75
2023/04/22 08:20:21;;;;;;;1999.90;999.90;;;;;;;22.34;55.47;97824.84;5131374;27;20054;-76
2023/04/22 08:22:47;;;;;;;1999.90;999.90;;;;;;;21.93;56.90;97831.38;5133104;27;20035;-75
2023/04/22 08:25:13;;;;;;;1999.90;999.90;;;;;;;22.22;55.45;97830.66;5117010;27;20035;-75
2023/04/22 08:27:39;;;;;;;1999.90;999.90;;;;;;;23.07;52.67;97833.84;5114506;27;20378;-75
2023/04/22 08:30:05;;;;;;;1999.90;999.90;;;;;;;23.81;50.43;97823.50;5132413;27;20023;-75
2023/04/22 08:32:31;;;;;;;1999.90;999.90;;;;;;;23.82;48.81;97831.50;5132991;27;20030;-75
2023/04/22 08:34:56;;;;;;;1999.90;999.90;;;;;;;22.78;50.61;97824.31;5133174;27;20417;-74
2023/04/22 08:37:22;;;;;;;1999.90;999.90;;;;;;;21.76;53.54;97815.16;5133330;27;20023;-75
2023/04/22 08:39:47;;;;;;;1999.90;999.90;;;;;;;22.31;52.71;97814.47;5136946;27;20163;-75
2023/04/22 08:42:14;;;;;;;1999.90;999.90;;;;;;;22.08;53.03;97810.94;5133098;27;20117;-78
2023/04/22 08:44:40;;;;;;;1999.90;999.90;;;;;;;23.21;49.44;97815.25;5132527;27;20015;-75
2023/04/22 08:47:08;;;;;;;1999.90;999.90;;;;;;;23.98;47.60;97817.25;5129143;27;20106;-75
2023/04/22 08:49:35;;;;;;;1999.90;999.90;;;;;;;23.76;47.16;97809.88;5112368;27;20502;-73
2023/04/22 08:52:00;;;;;;;1999.90;999.90;;;;;;;23.59;47.71;97811.31;5132508;27;20023;-75
2023/04/22 08:54:26;;;;;;;1999.90;999.90;;;;;;;25.16;43.89;97814.00;5132581;27;20027;-76
2023/04/22 08:56:52;;;;;;;1999.90;999.90;;;;;;;24.88;43.38;97823.09;5132588;27;20019;-73
2023/04/22 08:59:19;;;;;;;1999.90;999.90;;;;;;;24.21;47.38;97809.50;5135153;27;20494;-73
2023/04/22 09:01:50;;;;;;;1999.90;999.90;;;;;;;25.08;43.56;97796.41;5136359;27;20023;-75
2023/04/22 09:04:18;;;;;;;1999.90;999.90;;;;;;;24.77;45.54;97809.03;5140087;27;20026;-78
2023/04/22 09:06:43;;;;;;;1999.90;999.90;;;;;;;26.20;42.75;97806.22;5131807;27;20027;-73
2023/04/22 09:09:08;;;;;;;1999.90;999.90;;;;;;;26.89;44.52;97802.88;5132194;27;20041;-73
2023/04/22 09:11:35;;;;;;;1999.90;999.90;;;;;;;26.20;40.39;97806.22;5112505;27;20115;-74
2023/04/22 09:14:04;;;;;;;1999.90;999.90;;;;;;;25.77;39.58;97804.59;5131087;27;20023;-74
2023/04/22 09:16:32;;;;;;;1999.90;999.90;;;;;;;24.88;41.23;97803.50;5113121;27;20496;-73
2023/04/22 09:18:58;;;;;;;1999.90;999.90;;;;;;;24.89;40.85;97800.34;5114147;27;20437;-74
2023/04/22 09:21:27;;;;;;;1999.90;999.90;;;;;;;24.76;46.60;97795.44;5132160;27;20035;-71
2023/04/22 09:23:55;;;;;;;1999.90;999.90;;;;;;;24.85;41.26;97798.69;5129211;27;20391;-73
2023/04/22 09:26:23;;;;;;;1999.90;999.90;;;;;;;23.26;46.00;97787.03;5131046;27;20518;-73
2023/04/22 09:28:53;;;;;;;1999.90;999.90;;;;;;;25.31;42.68;97794.06;5130674;27;20387;-73
2023/04/22 09:31:20;;;;;;;1999.90;999.90;;;;;;;24.83;41.29;97790.72;5130789;27;20027;-72
2023/04/22 09:33:48;;;;;;;1999.90;999.90;;;;;;;24.68;39.94;97791.81;5130943;27;20051;-74
2023/04/22 09:36:14;;;;;;;1999.90;999.90;;;;;;;24.55;41.32;97787.75;5131447;27;20035;-73
2023/04/22 09:38:39;;;;;;;1999.90;999.90;;;;;;;25.36;42.84;97776.88;5134156;27;20036;-73
2023/04/22 09:41:10;;;;;;;1999.90;999.90;;;;;;;26.66;35.94;97771.69;5136177;27;20035;-73
2023/04/22 09:43:37;;;;;;;1999.90;999.90;;;;;;;25.82;39.86;97767.75;5130706;27;20031;-73
2023/04/22 09:46:05;;;;;;;1999.90;999.90;;;;;;;25.90;37.18;97764.56;5131324;27;20031;-73
2023/04/22 09:48:31;;;;;;;1999.90;999.90;;;;;;;25.70;40.45;97756.94;5133891;27;20039;-73
2023/04/22 09:50:56;;;;;;;1999.90;999.90;;;;;;;25.44;38.99;97764.47;5128471;27;20026;-74
2023/04/22 09:53:21;;;;;;;1999.90;999.90;;;;;;;25.43;37.19;97765.69;5130983;27;20046;-74
2023/04/22 09:55:52;;;;;;;1999.90;999.90;;;;;;;24.95;37.12;97758.75;5130945;27;20027;-73
2023/04/22 09:58:19;;;;;;;1999.90;999.90;;;;;;;24.06;40.16;97757.41;5129705;27;20539;-73
2023/04/22 10:00:50;;;;;;;1999.90;999.90;;;;;;;23.90;39.72;97743.72;5130696;27;20076;-73
2023/04/22 10:03:17;;;;;;;1999.90;999.90;;;;;;;23.50;43.54;97740.19;5130963;27;20105;-73
2023/04/22 10:05:44;;;;;;;1999.90;999.90;;;;;;;23.86;40.70;97736.53;5130575;27;20030;-74
2023/04/22 10:08:11;;;;;;;1999.90;999.90;;;;;;;24.40;39.73;97742.09;5129709;27;20031;-74
2023/04/22 10:10:37;;;;;;;1999.90;999.90;;;;;;;25.34;36.06;97736.47;5131185;27;20688;-74
2023/04/22 10:13:03;;;;;;;1999.90;999.90;;;;;;;25.25;39.58;97739.63;5131779;27;20105;-74
2023/04/22 10:15:42;;;;;;;1999.90;999.90;;;;;;;26.85;34.28;97723.47;5117235;27;20027;-74
2023/04/22 10:18:12;;;;;;;1999.90;999.90;;;;;;;26.26;35.38;97737.28;5135080;27;20101;-78
2023/04/22 10:20:40;;;;;;;1999.90;999.90;;;;;;;25.61;35.50;97734.09;5135302;27;20027;-75
2023/04/22 10:23:12;;;;;;;1999.90;999.90;;;;;;;24.17;37.63;97730.38;5135806;27;20027;-74
2023/04/22 10:25:39;;;;;;;1999.90;999.90;;;;;;;25.15;37.09;97731.22;5134025;27;20418;-75
2023/04/22 10:28:07;;;;;;;1999.90;999.90;;;;;;;24.64;37.85;97723.03;5114734;28;20024;-74
2023/04/22 10:30:36;;;;;;;1999.90;999.90;;;;;;;25.31;36.23;97715.63;5122351;27;20034;-74
2023/04/22 10:33:20;;;;;;;1999.90;999.90;;;;;;;25.06;36.44;97717.59;5147945;27;20486;-76
2023/04/22 10:36:04;;;;;;;1999.90;999.90;;;;;;;26.05;34.24;97715.66;5146233;27;20041;-72
2023/04/22 10:38:53;;;;;;;1999.90;999.90;;;;;;;26.18;32.81;97712.47;5134766;27;20019;-75
2023/04/22 10:41:37;;;;;;;1999.90;999.90;;;;;;;25.93;36.26;97710.50;5126741;27;20074;-75
2023/04/22 10:44:06;;;;;;;1999.90;999.90;;;;;;;26.37;32.80;97712.84;5132961;27;20035;-74
2023/04/22 10:46:33;;;;;;;1999.90;999.90;;;;;;;24.95;35.27;97706.38;5134742;27;20019;-75
2023/04/22 10:49:08;;;;;;;1999.90;999.90;;;;;;;23.74;37.53;97683.75;5134624;27;20033;-75
2023/04/22 10:51:50;;;;;;;1999.90;999.90;;;;;;;22.38;39.18;97677.97;5116281;27;20063;-74